Caarapo, Brazil
Current Conditions -  °F | °C
As of 4:00 PM on Sunday 23 Nov 2014 (Local Time) from SBCG Reporting Station
Rain Showers Rain Showers  
Wind Chill: 79°   Ceiling: 3300
Heat Index: 81°   Visibility: 6mi
Dew Point: 70°   Wind: 8mph
Humidity: 74%   Direction: 200°SSW
Pressure: NA   Gusts: NA
Location:  22.63°S, 54.82°W
Report Text: SBCG 231900Z 20007KT 9999 VCSH BKN033 FEW040TCU SCT100 26/21 Q1011
Loading
Personal Weather Stations






























Interactive Weather Map New forecast layout! Learn more

10-Day Weather Forecast

Advertisements
Track Severe Weather on mobile